createdAt,value
2023-04-27T00:00:40.441Z,1.50
2023-04-27T00:03:07.360Z,1.30
2023-04-27T00:05:39.400Z,1.27
2023-04-27T00:08:06.992Z,1.33
2023-04-27T00:10:33.896Z,1.80
2023-04-27T00:13:01.623Z,1.30
2023-04-27T00:15:28.528Z,1.40
2023-04-27T00:17:55.755Z,1.23
2023-04-27T00:20:22.364Z,1.63
2023-04-27T00:22:48.975Z,1.37
2023-04-27T00:25:15.598Z,1.43
2023-04-27T00:27:42.117Z,1.47
2023-04-27T00:30:09.647Z,1.50
2023-04-27T00:32:36.205Z,1.60
2023-04-27T00:35:02.733Z,1.27
2023-04-27T00:37:29.268Z,1.63
2023-04-27T00:39:55.746Z,1.40
2023-04-27T00:42:24.896Z,1.60
2023-04-27T00:44:51.822Z,1.40
2023-04-27T00:47:18.615Z,1.40
2023-04-27T00:49:45.545Z,1.63
2023-04-27T00:52:12.072Z,1.20
2023-04-27T00:54:39.058Z,1.50
2023-04-27T00:57:05.648Z,1.60
2023-04-27T00:59:32.165Z,1.50
2023-04-27T01:01:59.513Z,1.60
2023-04-27T01:04:26.861Z,1.60
2023-04-27T01:06:53.799Z,1.40
2023-04-27T01:09:21.426Z,1.50
2023-04-27T01:11:49.766Z,1.40
2023-04-27T01:14:17.289Z,1.30
2023-04-27T01:16:44.347Z,1.67
2023-04-27T01:19:11.119Z,1.23
2023-04-27T01:21:37.914Z,1.70
2023-04-27T01:24:06.281Z,1.63
2023-04-27T01:26:33.203Z,1.40
2023-04-27T01:29:00.033Z,1.53
2023-04-27T01:31:27.213Z,1.37
2023-04-27T01:33:53.718Z,1.40
2023-04-27T01:36:20.246Z,1.60
2023-04-27T01:38:48.370Z,1.60
2023-04-27T01:41:14.877Z,1.30
2023-04-27T01:43:43.564Z,1.27
2023-04-27T01:46:14.273Z,1.30
2023-04-27T01:48:41.563Z,1.27
2023-04-27T01:51:08.176Z,1.67
2023-04-27T01:53:35.004Z,1.50
2023-04-27T01:56:01.628Z,1.30
2023-04-27T01:58:28.198Z,1.50
2023-04-27T02:00:54.773Z,1.70
2023-04-27T02:03:22.245Z,1.50
2023-04-27T02:05:50.402Z,1.60
2023-04-27T02:08:16.937Z,1.67
2023-04-27T02:10:44.537Z,1.50
2023-04-27T02:13:11.090Z,1.73
2023-04-27T02:15:37.687Z,1.73
2023-04-27T02:18:04.623Z,1.53
2023-04-27T02:20:32.462Z,1.70
2023-04-27T02:23:01.053Z,2.20
2023-04-27T02:25:28.000Z,2.57
2023-04-27T02:27:55.132Z,2.40
2023-04-27T02:30:22.273Z,3.07
2023-04-27T02:32:49.600Z,3.00
2023-04-27T02:35:16.460Z,3.60
2023-04-27T02:37:42.952Z,3.97
2023-04-27T02:40:10.214Z,4.07
2023-04-27T02:42:38.786Z,4.50
2023-04-27T02:45:08.641Z,5.50
2023-04-27T02:47:36.283Z,5.83
2023-04-27T02:50:03.133Z,6.43
2023-04-27T02:52:33.660Z,6.93
2023-04-27T02:55:00.268Z,9.30
2023-04-27T02:57:27.854Z,8.93
2023-04-27T02:59:54.352Z,8.87
2023-04-27T03:02:21.057Z,10.27
2023-04-27T03:04:47.658Z,10.40
2023-04-27T03:07:14.160Z,12.07
2023-04-27T03:09:40.599Z,11.23
2023-04-27T03:12:07.180Z,12.37
2023-04-27T03:14:33.689Z,13.27
2023-04-27T03:17:00.526Z,14.13
2023-04-27T03:19:27.038Z,14.60
2023-04-27T03:21:53.464Z,14.07
2023-04-27T03:24:19.933Z,15.03
2023-04-27T03:26:46.446Z,14.87
2023-04-27T03:29:13.093Z,14.93
2023-04-27T03:31:39.702Z,14.63
2023-04-27T03:34:06.255Z,15.20
2023-04-27T03:36:32.676Z,16.30
2023-04-27T03:38:59.163Z,16.77
2023-04-27T03:41:25.673Z,15.07
2023-04-27T03:43:53.384Z,15.57
2023-04-27T03:46:19.984Z,17.13
2023-04-27T03:48:47.168Z,16.37
2023-04-27T03:51:14.914Z,16.07
2023-04-27T03:53:43.322Z,16.17
2023-04-27T03:56:09.777Z,16.33
2023-04-27T03:58:37.004Z,17.47
2023-04-27T04:01:26.410Z,16.93
2023-04-27T04:03:53.661Z,16.70
2023-04-27T04:06:20.643Z,17.03
2023-04-27T04:08:47.111Z,17.80
2023-04-27T04:11:13.714Z,16.90
2023-04-27T04:13:41.198Z,16.80
2023-04-27T04:16:09.752Z,15.93
2023-04-27T04:18:36.831Z,16.40
2023-04-27T04:21:04.210Z,16.93
2023-04-27T04:23:30.808Z,16.20
2023-04-27T04:25:57.652Z,14.40
2023-04-27T04:28:27.441Z,14.97
2023-04-27T04:30:54.109Z,15.37
2023-04-27T04:33:20.632Z,15.03
2023-04-27T04:35:47.176Z,15.03
2023-04-27T04:38:14.072Z,14.43
2023-04-27T04:40:44.457Z,15.20
2023-04-27T04:43:13.233Z,15.53
2023-04-27T04:45:39.948Z,14.13
2023-04-27T04:48:06.475Z,15.13
2023-04-27T04:50:33.529Z,14.07
2023-04-27T04:53:00.046Z,13.63
2023-04-27T04:55:28.245Z,13.40
2023-04-27T04:57:54.768Z,12.90
2023-04-27T05:00:22.288Z,12.97
2023-04-27T05:02:48.877Z,12.40
2023-04-27T05:05:15.923Z,12.90
2023-04-27T05:07:43.009Z,12.53
2023-04-27T05:10:09.578Z,11.57
2023-04-27T05:12:36.119Z,12.10
2023-04-27T05:15:02.740Z,12.70
2023-04-27T05:17:29.227Z,11.60
2023-04-27T05:19:55.680Z,11.30
2023-04-27T05:22:22.156Z,11.10
2023-04-27T05:24:48.806Z,11.17
2023-04-27T05:27:15.287Z,11.33
2023-04-27T05:29:42.036Z,10.23
2023-04-27T05:32:09.497Z,9.70
2023-04-27T05:34:36.704Z,9.53
2023-04-27T05:37:03.390Z,9.50
2023-04-27T05:39:29.883Z,9.23
2023-04-27T05:41:57.407Z,9.13
2023-04-27T05:44:28.198Z,9.47
2023-04-27T05:46:55.769Z,9.13
2023-04-27T05:49:22.337Z,9.00
2023-04-27T05:51:48.894Z,8.43
2023-04-27T05:54:15.428Z,8.47
2023-04-27T05:56:41.913Z,7.40
2023-04-27T05:59:08.368Z,7.50
2023-04-27T06:01:34.814Z,7.33
2023-04-27T06:04:01.719Z,6.43
2023-04-27T06:06:31.689Z,7.13
2023-04-27T06:08:58.208Z,6.30
2023-04-27T06:11:24.760Z,6.30
2023-04-27T06:13:51.390Z,5.47
2023-04-27T06:16:17.867Z,5.53
2023-04-27T06:18:44.488Z,5.23
2023-04-27T06:21:11.092Z,5.27
2023-04-27T06:23:37.582Z,4.90
2023-04-27T06:26:04.288Z,4.33
2023-04-27T06:28:31.297Z,4.70
2023-04-27T06:30:57.747Z,4.50
2023-04-27T06:33:24.242Z,4.00
2023-04-27T06:35:50.906Z,3.80
2023-04-27T06:38:17.934Z,4.20
2023-04-27T06:40:45.786Z,4.17
2023-04-27T06:43:12.261Z,3.67
2023-04-27T06:45:38.773Z,3.77
2023-04-27T06:48:05.536Z,3.70
2023-04-27T06:50:32.025Z,3.40
2023-04-27T06:52:58.504Z,2.93
2023-04-27T06:55:25.346Z,3.00
2023-04-27T06:57:51.864Z,3.20
2023-04-27T07:00:18.892Z,3.60
2023-04-27T07:02:45.472Z,3.00
2023-04-27T07:05:11.976Z,3.37
2023-04-27T07:07:38.470Z,2.90
2023-04-27T07:10:05.798Z,2.80
2023-04-27T07:12:32.627Z,2.93
2023-04-27T07:14:59.086Z,2.87
2023-04-27T07:17:25.702Z,2.70
2023-04-27T07:19:52.184Z,3.03
2023-04-27T07:22:19.938Z,2.90
2023-04-27T07:24:46.363Z,3.00
2023-04-27T07:27:13.487Z,2.57
2023-04-27T07:29:39.938Z,2.80
2023-04-27T07:32:07.567Z,3.17
2023-04-27T07:34:48.984Z,2.27
2023-04-27T07:37:19.837Z,2.50
2023-04-27T07:39:46.727Z,2.13
2023-04-27T07:42:13.278Z,2.57
2023-04-27T07:44:40.638Z,2.60
2023-04-27T07:47:07.120Z,2.70
2023-04-27T07:49:34.932Z,2.60
2023-04-27T07:52:01.802Z,2.50
2023-04-27T07:54:28.286Z,2.40
2023-04-27T07:56:54.859Z,2.53
2023-04-27T07:59:21.439Z,2.10
2023-04-27T08:01:48.102Z,2.17
2023-04-27T08:04:16.147Z,2.47
2023-04-27T08:06:43.363Z,2.10
2023-04-27T08:09:10.064Z,2.67
2023-04-27T08:11:36.662Z,2.10
2023-04-27T08:14:03.181Z,2.13
2023-04-27T08:16:29.794Z,2.97
2023-04-27T08:18:57.558Z,2.33
2023-04-27T08:21:25.133Z,1.87
2023-04-27T08:23:51.595Z,1.87
2023-04-27T08:26:18.299Z,2.17
2023-04-27T08:28:44.809Z,2.40
2023-04-27T08:31:11.355Z,2.00
2023-04-27T08:33:37.807Z,2.10
2023-04-27T08:36:04.628Z,1.97
2023-04-27T08:38:31.321Z,2.20
2023-04-27T08:41:00.823Z,2.20
2023-04-27T08:43:37.251Z,1.73
2023-04-27T08:46:03.819Z,2.20
2023-04-27T08:48:30.465Z,1.90
2023-04-27T08:50:59.507Z,1.97
2023-04-27T08:53:26.642Z,1.90
2023-04-27T08:55:53.360Z,2.17
2023-04-27T08:58:19.838Z,2.33
2023-04-27T09:00:47.822Z,1.93
2023-04-27T09:03:25.112Z,1.97
2023-04-27T09:06:03.701Z,2.17
2023-04-27T09:08:46.988Z,2.30
2023-04-27T09:11:15.668Z,2.17
2023-04-27T09:13:45.192Z,2.03
2023-04-27T09:16:14.941Z,1.90
2023-04-27T09:18:42.773Z,2.33
2023-04-27T09:21:09.751Z,1.60
2023-04-27T09:23:38.643Z,2.10
2023-04-27T09:26:09.546Z,2.00
2023-04-27T09:28:39.037Z,2.00
2023-04-27T09:31:06.127Z,1.80
2023-04-27T09:33:34.195Z,1.83
2023-04-27T09:36:02.291Z,2.23
2023-04-27T09:38:29.661Z,1.90
2023-04-27T09:40:56.595Z,1.87
2023-04-27T09:43:24.731Z,2.03
2023-04-27T09:45:51.749Z,2.00
2023-04-27T09:48:18.717Z,1.83
2023-04-27T09:50:46.740Z,1.67
2023-04-27T09:53:15.613Z,2.00
2023-04-27T09:55:59.231Z,2.10
2023-04-27T09:59:01.595Z,1.93
2023-04-27T10:01:40.957Z,1.60
2023-04-27T10:04:22.666Z,1.77
2023-04-27T10:07:01.195Z,2.00
2023-04-27T10:09:33.976Z,1.73
2023-04-27T10:12:18.044Z,1.67
2023-04-27T10:14:58.006Z,2.10
2023-04-27T10:17:29.526Z,1.70
2023-04-27T10:19:58.680Z,1.47
2023-04-27T10:22:41.296Z,1.60
2023-04-27T10:25:24.008Z,1.70
2023-04-27T10:27:53.186Z,1.60
2023-04-27T10:30:21.069Z,1.90
2023-04-27T10:32:51.907Z,1.77
2023-04-27T10:35:19.433Z,1.50
2023-04-27T10:37:46.851Z,1.70
2023-04-27T10:40:14.907Z,1.83
2023-04-27T10:42:42.161Z,1.80
2023-04-27T10:45:09.283Z,1.70
2023-04-27T10:47:41.138Z,1.70
2023-04-27T10:50:13.223Z,1.67
2023-04-27T10:52:44.135Z,1.63
2023-04-27T10:55:20.408Z,1.70
2023-04-27T10:57:52.104Z,2.13
2023-04-27T11:00:30.794Z,1.50
2023-04-27T11:03:15.824Z,1.77
2023-04-27T11:05:47.143Z,1.63
2023-04-27T11:08:16.012Z,1.40
2023-04-27T11:10:50.429Z,1.53
2023-04-27T11:13:22.720Z,1.40
2023-04-27T11:15:57.651Z,1.80
2023-04-27T11:18:31.577Z,1.57
2023-04-27T11:21:09.582Z,1.80
2023-04-27T11:23:39.550Z,1.23
2023-04-27T11:26:16.900Z,1.43
2023-04-27T11:28:44.756Z,1.90
2023-04-27T11:31:11.659Z,1.63
2023-04-27T11:33:40.139Z,1.70
2023-04-27T11:36:19.820Z,1.40
2023-04-27T11:38:46.425Z,1.90
2023-04-27T11:41:13.066Z,1.97
2023-04-27T11:43:46.104Z,1.40
2023-04-27T11:46:13.193Z,1.30
2023-04-27T11:48:40.412Z,1.87
2023-04-27T11:51:10.172Z,1.23
2023-04-27T11:53:39.256Z,1.60
2023-04-27T11:56:10.680Z,1.73
2023-04-27T11:58:38.730Z,1.40
2023-04-27T12:01:05.707Z,1.70
2023-04-27T12:03:32.905Z,1.80
2023-04-27T12:06:07.666Z,1.60
2023-04-27T12:08:45.956Z,1.40
2023-04-27T12:11:12.398Z,1.50
2023-04-27T12:13:38.850Z,1.63
2023-04-27T12:16:06.043Z,1.43
2023-04-27T12:18:32.719Z,1.50
2023-04-27T12:21:03.049Z,1.37
2023-04-27T12:23:29.716Z,1.60
2023-04-27T12:25:56.466Z,1.47
2023-04-27T12:28:23.326Z,1.33
2023-04-27T12:30:49.900Z,1.60
2023-04-27T12:33:16.691Z,1.80
2023-04-27T12:35:43.212Z,1.70
2023-04-27T12:38:09.886Z,1.50
2023-04-27T12:40:36.569Z,1.77
2023-04-27T12:43:03.013Z,1.70
2023-04-27T12:45:29.593Z,1.83
2023-04-27T12:48:03.253Z,1.57
2023-04-27T12:50:34.140Z,1.70
2023-04-27T12:53:00.911Z,1.63
2023-04-27T12:55:33.719Z,1.70
2023-04-27T12:58:01.316Z,2.10
2023-04-27T13:00:29.309Z,1.90
2023-04-27T13:02:56.607Z,2.17
2023-04-27T13:05:23.544Z,1.93
2023-04-27T13:07:50.087Z,2.30
2023-04-27T13:10:16.538Z,1.80
2023-04-27T13:12:43.129Z,2.00
2023-04-27T13:15:10.178Z,1.80
2023-04-27T13:17:36.722Z,1.90
2023-04-27T13:20:03.406Z,1.50
2023-04-27T13:22:29.872Z,1.87
2023-04-27T13:24:56.293Z,1.60
2023-04-27T13:27:25.153Z,2.10
2023-04-27T13:29:51.730Z,1.67
2023-04-27T13:32:18.563Z,1.70
2023-04-27T13:34:45.351Z,1.50
2023-04-27T13:37:11.957Z,2.00
2023-04-27T13:39:38.439Z,1.63
2023-04-27T13:42:05.026Z,1.77
2023-04-27T13:44:31.858Z,1.70
2023-04-27T13:46:58.562Z,1.60
2023-04-27T13:49:25.807Z,1.77
2023-04-27T13:51:52.328Z,1.80
2023-04-27T13:54:18.912Z,1.80
2023-04-27T13:56:45.607Z,2.10
2023-04-27T13:59:12.257Z,1.93
2023-04-27T14:01:39.963Z,1.33
2023-04-27T14:04:06.606Z,1.83
2023-04-27T14:06:33.156Z,1.60
2023-04-27T14:08:59.614Z,1.67
2023-04-27T14:11:26.265Z,1.77
2023-04-27T14:13:52.797Z,1.40
2023-04-27T14:16:19.328Z,1.30
2023-04-27T14:18:45.890Z,1.93
2023-04-27T14:21:12.607Z,1.60
2023-04-27T14:23:39.039Z,1.70
2023-04-27T14:26:05.825Z,1.80
2023-04-27T14:28:32.403Z,1.50
2023-04-27T14:30:58.872Z,1.87
2023-04-27T14:33:25.365Z,2.03
2023-04-27T14:35:51.833Z,2.03
2023-04-27T14:38:18.496Z,2.00
2023-04-27T14:40:51.813Z,1.93
2023-04-27T14:43:18.372Z,1.87
2023-04-27T14:45:51.666Z,1.77
2023-04-27T14:48:20.896Z,2.10
2023-04-27T14:50:47.417Z,1.77
2023-04-27T14:53:13.888Z,1.80
2023-04-27T14:55:41.226Z,2.23
2023-04-27T14:58:07.791Z,2.13
2023-04-27T15:00:34.599Z,2.37
2023-04-27T15:03:01.253Z,2.27
2023-04-27T15:05:27.924Z,2.23
2023-04-27T15:07:54.412Z,2.30
2023-04-27T15:10:21.139Z,2.47
2023-04-27T15:12:47.594Z,2.70
2023-04-27T15:15:14.079Z,2.43
2023-04-27T15:17:41.518Z,2.50
2023-04-27T15:20:08.702Z,2.17
2023-04-27T15:22:35.215Z,2.50
2023-04-27T15:25:01.811Z,2.40
2023-04-27T15:27:28.308Z,2.20
2023-04-27T15:30:10.085Z,2.40
2023-04-27T15:32:36.821Z,2.30
2023-04-27T15:35:05.037Z,2.20
2023-04-27T15:37:35.566Z,2.40
2023-04-27T15:40:07.513Z,2.47
2023-04-27T15:42:34.351Z,2.30
2023-04-27T15:45:00.982Z,2.20
2023-04-27T15:47:28.307Z,2.80
2023-04-27T15:49:57.903Z,2.37
2023-04-27T15:52:26.877Z,1.90
2023-04-27T15:54:53.386Z,1.90
2023-04-27T15:57:21.575Z,2.17
2023-04-27T15:59:48.736Z,2.37
2023-04-27T16:02:15.859Z,1.80
2023-04-27T16:04:46.264Z,2.47
2023-04-27T16:07:12.802Z,2.60
2023-04-27T16:09:39.285Z,2.13
2023-04-27T16:12:05.879Z,2.43
2023-04-27T16:14:32.506Z,2.60
2023-04-27T16:17:02.469Z,2.40
2023-04-27T16:19:29.132Z,2.20
2023-04-27T16:21:55.846Z,2.33
2023-04-27T16:24:22.402Z,2.13
2023-04-27T16:26:48.926Z,2.87
2023-04-27T16:29:15.609Z,2.40
2023-04-27T16:31:42.982Z,2.13
2023-04-27T16:34:09.597Z,1.90
2023-04-27T16:36:36.430Z,2.30
2023-04-27T16:39:10.984Z,2.37
2023-04-27T16:41:39.865Z,2.43
2023-04-27T16:44:08.229Z,2.10
2023-04-27T16:46:37.221Z,2.50
2023-04-27T16:49:06.374Z,2.30
2023-04-27T16:51:37.404Z,2.80
2023-04-27T16:54:05.758Z,2.40
2023-04-27T16:56:35.033Z,2.27
2023-04-27T16:59:06.804Z,2.77
2023-04-27T17:01:35.766Z,2.67
2023-04-27T17:04:04.073Z,3.00
2023-04-27T17:06:30.898Z,2.53
2023-04-27T17:08:58.160Z,2.70
2023-04-27T17:11:24.828Z,2.57
2023-04-27T17:13:51.329Z,2.17
2023-04-27T17:16:18.694Z,3.20
2023-04-27T17:18:46.432Z,2.77
2023-04-27T17:21:13.689Z,3.10
2023-04-27T17:23:41.371Z,2.90
2023-04-27T17:26:08.235Z,3.47
2023-04-27T17:28:35.070Z,4.03
2023-04-27T17:31:01.819Z,3.77
2023-04-27T17:33:28.335Z,3.83
2023-04-27T17:35:54.889Z,4.03
2023-04-27T17:38:21.405Z,4.07
2023-04-27T17:40:47.889Z,4.50
2023-04-27T17:43:14.420Z,4.47
2023-04-27T17:45:41.270Z,4.60
2023-04-27T17:48:07.776Z,4.77
2023-04-27T17:50:35.920Z,4.90
2023-04-27T17:53:02.392Z,4.63
2023-04-27T17:55:29.099Z,4.37
2023-04-27T17:57:55.634Z,4.50
2023-04-27T18:00:22.827Z,4.37
2023-04-27T18:02:49.595Z,5.00
2023-04-27T18:05:17.111Z,4.37
2023-04-27T18:07:45.987Z,4.13
2023-04-27T18:10:12.720Z,4.17
2023-04-27T18:12:39.280Z,3.67
2023-04-27T18:15:09.407Z,3.77
2023-04-27T18:17:37.664Z,4.10
2023-04-27T18:20:10.117Z,4.07
2023-04-27T18:22:39.276Z,3.73
2023-04-27T18:25:06.311Z,4.13
2023-04-27T18:27:33.013Z,3.63
2023-04-27T18:29:59.641Z,3.57
2023-04-27T18:32:26.146Z,4.07
2023-04-27T18:34:52.685Z,4.10
2023-04-27T18:37:19.141Z,3.43
2023-04-27T18:39:45.730Z,4.47
2023-04-27T18:42:13.559Z,4.83
2023-04-27T18:44:40.231Z,3.80
2023-04-27T18:47:07.659Z,3.53
2023-04-27T18:49:34.716Z,3.70
2023-04-27T18:52:01.453Z,3.30
2023-04-27T18:54:27.929Z,3.50
2023-04-27T18:56:59.316Z,3.70
2023-04-27T18:59:25.859Z,3.20
2023-04-27T19:01:52.459Z,3.33
2023-04-27T19:04:19.163Z,53.43
2023-04-27T19:06:47.423Z,89.80
2023-04-27T19:09:14.044Z,57.87
2023-04-27T19:11:41.237Z,33.70
2023-04-27T19:14:10.576Z,22.30
2023-04-27T19:16:37.936Z,17.13
2023-04-27T19:19:04.510Z,15.80
2023-04-27T19:21:31.541Z,11.10
2023-04-27T19:23:58.094Z,8.90
2023-04-27T19:26:26.733Z,6.70
2023-04-27T19:28:56.390Z,5.63
2023-04-27T19:31:23.693Z,5.47
2023-04-27T19:33:55.193Z,5.10
2023-04-27T19:36:22.901Z,4.10
2023-04-27T19:38:49.552Z,4.07
2023-04-27T19:41:16.136Z,3.73
2023-04-27T19:43:42.603Z,3.83
2023-04-27T19:46:09.167Z,3.73
2023-04-27T19:48:35.701Z,4.13
2023-04-27T19:51:02.740Z,3.80
2023-04-27T19:53:29.153Z,3.73
2023-04-27T19:55:55.592Z,4.30
2023-04-27T19:58:22.163Z,3.20
2023-04-27T20:00:48.945Z,3.43
2023-04-27T20:03:15.555Z,3.43
2023-04-27T20:05:42.663Z,4.30
2023-04-27T20:08:09.202Z,3.80
2023-04-27T20:10:35.798Z,3.83
2023-04-27T20:13:02.305Z,4.50
2023-04-27T20:15:28.743Z,4.17
2023-04-27T20:17:55.256Z,4.10
2023-04-27T20:20:21.855Z,4.03
2023-04-27T20:22:48.289Z,3.80
2023-04-27T20:25:14.991Z,3.60
2023-04-27T20:27:41.786Z,3.87
2023-04-27T20:30:09.044Z,4.37
2023-04-27T20:32:36.177Z,3.93
2023-04-27T20:35:04.627Z,4.17
2023-04-27T20:37:32.124Z,4.03
2023-04-27T20:39:59.292Z,4.63
2023-04-27T20:42:25.759Z,4.13
2023-04-27T20:44:54.644Z,3.83
2023-04-27T20:47:21.228Z,4.40
2023-04-27T20:49:47.709Z,4.87
2023-04-27T20:52:14.447Z,3.83
2023-04-27T20:54:41.111Z,4.20
2023-04-27T20:57:10.906Z,4.23
2023-04-27T20:59:37.328Z,4.20
2023-04-27T21:02:03.825Z,4.03
2023-04-27T21:04:30.538Z,4.10
2023-04-27T21:06:57.159Z,4.07
2023-04-27T21:09:23.617Z,3.40
2023-04-27T21:11:50.234Z,3.93
2023-04-27T21:14:16.879Z,3.90
2023-04-27T21:16:43.629Z,3.93
2023-04-27T21:19:12.919Z,3.80
2023-04-27T21:21:39.358Z,3.43
2023-04-27T21:24:08.058Z,4.23
2023-04-27T21:26:34.877Z,4.10
2023-04-27T21:29:01.569Z,4.27
2023-04-27T21:31:28.165Z,3.93
2023-04-27T21:33:54.675Z,4.20
2023-04-27T21:36:21.444Z,3.47
2023-04-27T21:38:47.887Z,4.20
2023-04-27T21:41:15.574Z,4.67
2023-04-27T21:43:42.164Z,3.93
2023-04-27T21:46:09.295Z,3.67
2023-04-27T21:48:36.205Z,3.90
2023-04-27T21:51:02.965Z,3.70
2023-04-27T21:53:30.561Z,3.83
2023-04-27T21:55:57.218Z,4.13
2023-04-27T21:58:24.233Z,4.60
2023-04-27T22:00:50.848Z,3.90
2023-04-27T22:03:17.952Z,4.40
2023-04-27T22:05:45.249Z,4.10
2023-04-27T22:08:12.067Z,4.40
2023-04-27T22:10:38.679Z,3.90
2023-04-27T22:13:17.754Z,3.33
2023-04-27T22:15:45.783Z,3.57
2023-04-27T22:18:14.185Z,3.70
2023-04-27T22:20:44.340Z,3.47
2023-04-27T22:23:14.327Z,3.53
2023-04-27T22:25:43.070Z,3.10
2023-04-27T22:28:10.259Z,2.97
2023-04-27T22:30:37.028Z,3.60
2023-04-27T22:33:03.831Z,3.40
2023-04-27T22:35:30.334Z,3.27
2023-04-27T22:37:57.271Z,3.07
2023-04-27T22:40:24.241Z,3.53
2023-04-27T22:42:51.278Z,3.20
2023-04-27T22:45:17.980Z,3.23
2023-04-27T22:47:45.831Z,2.90
2023-04-27T22:50:13.423Z,3.00
2023-04-27T22:52:42.247Z,3.03
2023-04-27T22:55:10.956Z,2.93
2023-04-27T22:57:38.683Z,3.10
2023-04-27T23:00:06.125Z,2.93
2023-04-27T23:02:32.681Z,3.60
2023-04-27T23:04:59.301Z,2.90
2023-04-27T23:07:25.883Z,3.00
2023-04-27T23:09:52.696Z,3.50
2023-04-27T23:12:20.632Z,3.87
2023-04-27T23:14:47.182Z,3.07
2023-04-27T23:17:15.276Z,3.10
2023-04-27T23:19:41.911Z,3.10
2023-04-27T23:22:08.343Z,3.00
2023-04-27T23:24:35.204Z,2.93
2023-04-27T23:27:01.624Z,3.17
2023-04-27T23:29:28.453Z,3.23
2023-04-27T23:31:55.005Z,2.83
2023-04-27T23:34:21.613Z,2.97
2023-04-27T23:36:48.063Z,2.63
2023-04-27T23:39:14.538Z,3.03
2023-04-27T23:41:41.092Z,3.50
2023-04-27T23:44:08.360Z,2.93
2023-04-27T23:46:35.216Z,2.93
2023-04-27T23:49:01.803Z,2.90
2023-04-27T23:51:28.298Z,3.00
2023-04-27T23:53:54.796Z,3.00
2023-04-27T23:56:22.922Z,2.93
2023-04-27T23:58:49.409Z,2.90
